Time;durP1;ratioP1;P1;durP2;ratioP2;P2;SDS_P1;SDS_P2;PMS_P1;PMS_P2;Temp;Humidity;BMP_temperature;BMP_pressure;BME280_temperature;BME280_humidity;BME280_pressure;Samples;Min_cycle;Max_cycle;Signal;HPM_P1;HPM_P2
2022/06/25 00:01:12;;;;;;;0.50;0.50;;;14.30;99.90;;;;;;4983605;28;20211;-84
2022/06/25 00:03:38;;;;;;;0.50;0.40;;;14.20;99.90;;;;;;4979776;28;20185;-83
2022/06/25 00:06:05;;;;;;;0.80;0.53;;;14.30;99.90;;;;;;4982188;28;20214;-83
2022/06/25 00:08:32;;;;;;;0.57;0.43;;;14.30;99.90;;;;;;4980450;28;20187;-83
2022/06/25 00:10:58;;;;;;;0.83;0.60;;;14.30;99.90;;;;;;4982605;28;20610;-83
2022/06/25 00:13:23;;;;;;;0.60;0.60;;;14.30;99.90;;;;;;4982648;28;20230;-83
2022/06/25 00:15:49;;;;;;;0.60;0.60;;;14.30;99.90;;;;;;4980698;28;20200;-83
2022/06/25 00:18:16;;;;;;;0.60;0.60;;;14.30;99.90;;;;;;4983601;28;20673;-84
2022/06/25 00:20:43;;;;;;;1.83;0.83;;;14.40;99.90;;;;;;4980400;28;20658;-83
2022/06/25 00:23:09;;;;;;;1.57;0.60;;;14.40;99.90;;;;;;4979931;28;20528;-84
2022/06/25 00:25:35;;;;;;;1.13;0.77;;;14.30;99.90;;;;;;4979536;28;20191;-83
2022/06/25 00:28:00;;;;;;;1.03;0.60;;;14.30;99.90;;;;;;4981472;28;20176;-83
2022/06/25 00:30:27;;;;;;;0.80;0.60;;;14.40;99.90;;;;;;4981794;28;20204;-82
2022/06/25 00:32:52;;;;;;;1.53;0.80;;;14.30;99.90;;;;;;4978923;28;20207;-85
2022/06/25 00:35:21;;;;;;;0.50;0.50;;;14.30;99.90;;;;;;4979611;28;20516;-84
2022/06/25 00:37:47;;;;;;;0.50;0.50;;;14.30;99.90;;;;;;4981457;28;20176;-83
2022/06/25 00:40:12;;;;;;;1.07;0.60;;;14.30;99.90;;;;;;4980020;28;20192;-83
2022/06/25 00:42:42;;;;;;;0.60;0.50;;;14.30;99.90;;;;;;4979524;28;20724;-84
2022/06/25 00:45:08;;;;;;;0.50;0.50;;;14.30;99.90;;;;;;4979165;28;20195;-84
2022/06/25 00:47:33;;;;;;;0.63;0.40;;;14.30;99.90;;;;;;4979425;28;20183;-84
2022/06/25 00:49:59;;;;;;;0.70;0.40;;;14.30;99.90;;;;;;4978865;28;20682;-83
2022/06/25 00:52:26;;;;;;;2.00;0.50;;;14.30;99.90;;;;;;4979861;28;20214;-83
2022/06/25 00:54:55;;;;;;;1.23;0.77;;;14.30;99.90;;;;;;4979734;28;20650;-83
2022/06/25 00:57:25;;;;;;;1.13;0.60;;;14.30;99.90;;;;;;4980947;28;20177;-84
2022/06/25 00:59:53;;;;;;;0.73;0.60;;;14.20;99.90;;;;;;4979811;28;20264;-84
2022/06/25 01:02:22;;;;;;;0.80;0.77;;;14.10;99.90;;;;;;4982240;28;20180;-83
2022/06/25 01:04:48;;;;;;;0.60;0.60;;;14.10;99.90;;;;;;4980997;28;20191;-84
2022/06/25 01:07:14;;;;;;;0.70;0.60;;;14.00;99.90;;;;;;4980086;28;20180;-84
2022/06/25 01:09:40;;;;;;;0.70;0.50;;;14.00;99.90;;;;;;4980881;28;20551;-84
2022/06/25 01:12:07;;;;;;;1.20;0.70;;;14.00;99.90;;;;;;4982366;28;20662;-84
2022/06/25 01:14:33;;;;;;;1.27;0.70;;;14.00;99.90;;;;;;4982958;28;20721;-84
2022/06/25 01:16:58;;;;;;;1.80;0.50;;;14.00;99.90;;;;;;4982992;28;20188;-84
2022/06/25 01:19:24;;;;;;;0.70;0.70;;;13.90;99.90;;;;;;4981790;28;20199;-84
2022/06/25 01:21:50;;;;;;;0.90;0.60;;;13.90;99.90;;;;;;4982276;28;20187;-84
2022/06/25 01:24:16;;;;;;;0.93;0.70;;;13.90;99.90;;;;;;4982174;28;20183;-84
2022/06/25 01:26:42;;;;;;;2.50;0.70;;;13.90;99.90;;;;;;4982609;28;20259;-84
2022/06/25 01:29:09;;;;;;;0.60;0.50;;;13.90;99.90;;;;;;4982126;28;20188;-84
2022/06/25 01:31:35;;;;;;;2.53;0.70;;;13.90;99.90;;;;;;4988355;28;20208;-84
2022/06/25 01:34:02;;;;;;;1.07;0.60;;;13.90;99.90;;;;;;4986610;28;20180;-83
2022/06/25 01:36:28;;;;;;;2.63;0.70;;;13.90;99.90;;;;;;4977049;28;20172;-83
2022/06/25 01:38:53;;;;;;;0.50;0.50;;;13.90;99.90;;;;;;4974805;28;20238;-83
2022/06/25 01:41:20;;;;;;;0.90;0.60;;;13.90;99.90;;;;;;4974919;28;20204;-83
2022/06/25 01:43:46;;;;;;;3.60;0.57;;;13.90;99.90;;;;;;4987909;28;20185;-81
2022/06/25 01:46:14;;;;;;;0.70;0.60;;;13.90;99.90;;;;;;5002580;28;20203;-84
2022/06/25 01:48:39;;;;;;;1.50;0.60;;;13.90;99.90;;;;;;4991577;28;20200;-84
2022/06/25 01:51:05;;;;;;;0.50;0.50;;;13.90;99.90;;;;;;4981922;28;20218;-84
2022/06/25 01:53:31;;;;;;;0.63;0.63;;;13.90;99.90;;;;;;4981440;28;20638;-83
2022/06/25 01:55:57;;;;;;;0.57;0.57;;;13.90;99.90;;;;;;4982282;28;20653;-84
2022/06/25 01:58:23;;;;;;;1.77;0.90;;;13.80;99.90;;;;;;4981538;28;20546;-84
2022/06/25 02:00:49;;;;;;;0.90;0.70;;;13.80;99.90;;;;;;4984070;28;20200;-84
2022/06/25 02:03:15;;;;;;;0.77;0.60;;;13.80;99.90;;;;;;4982956;28;20258;-84
2022/06/25 02:05:57;;;;;;;1.40;0.60;;;13.80;99.90;;;;;;4981251;28;20176;-84
2022/06/25 02:08:27;;;;;;;0.70;0.70;;;13.80;99.90;;;;;;4981686;28;20250;-84
2022/06/25 02:10:54;;;;;;;0.90;0.70;;;13.70;99.90;;;;;;4982402;28;20227;-84
2022/06/25 02:13:20;;;;;;;2.00;0.73;;;13.70;99.90;;;;;;4982279;28;20180;-84
2022/06/25 02:15:46;;;;;;;4.33;0.70;;;13.70;99.90;;;;;;4982494;28;20223;-84
2022/06/25 02:18:12;;;;;;;1.17;0.70;;;13.60;99.90;;;;;;4983086;28;20191;-84
2022/06/25 02:20:39;;;;;;;0.83;0.67;;;13.60;99.90;;;;;;4983040;28;20755;-84
2022/06/25 02:23:06;;;;;;;3.90;0.80;;;13.60;99.90;;;;;;4983410;28;20182;-84
2022/06/25 02:25:32;;;;;;;0.93;0.70;;;13.60;99.90;;;;;;4983062;28;20180;-84
2022/06/25 02:27:58;;;;;;;0.90;0.90;;;13.50;99.90;;;;;;4982738;28;20548;-84
2022/06/25 02:30:23;;;;;;;2.40;0.60;;;13.50;99.90;;;;;;4985811;28;20205;-85
2022/06/25 02:32:49;;;;;;;0.57;0.57;;;13.50;99.90;;;;;;4985142;28;20639;-85
2022/06/25 02:35:18;;;;;;;1.67;0.67;;;13.50;99.90;;;;;;4984010;28;20215;-85
2022/06/25 02:37:43;;;;;;;2.20;0.80;;;13.50;99.90;;;;;;4984623;28;20207;-84
2022/06/25 02:40:11;;;;;;;0.70;0.60;;;13.50;99.90;;;;;;4987589;28;20204;-84
2022/06/25 02:42:38;;;;;;;1.77;0.67;;;13.40;99.90;;;;;;4993239;28;20181;-84
2022/06/25 02:45:06;;;;;;;3.33;0.60;;;13.40;99.90;;;;;;4986250;28;20552;-85
2022/06/25 02:47:32;;;;;;;0.90;0.80;;;13.40;99.90;;;;;;4983808;28;20184;-83
2022/06/25 02:49:58;;;;;;;1.63;0.80;;;13.40;99.90;;;;;;4983877;28;20204;-85
2022/06/25 02:52:24;;;;;;;0.67;0.53;;;13.30;99.90;;;;;;4983678;28;20247;-84
2022/06/25 02:54:50;;;;;;;1.97;0.80;;;13.30;99.90;;;;;;4985237;28;20179;-84
2022/06/25 03:00:02;;;;;;;0.97;0.77;;;13.20;99.90;;;;;;4985624;28;20204;-84
2022/06/25 03:02:28;;;;;;;0.70;0.60;;;13.20;99.90;;;;;;4985159;28;20194;-84
2022/06/25 03:04:54;;;;;;;4.50;1.10;;;13.20;99.90;;;;;;4990279;28;20207;-84
2022/06/25 03:07:20;;;;;;;1.00;0.80;;;13.20;99.90;;;;;;4988899;28;20255;-83
2022/06/25 03:09:46;;;;;;;2.30;0.63;;;13.20;99.90;;;;;;4981343;28;20215;-84
2022/06/25 03:12:12;;;;;;;0.70;0.70;;;13.20;99.90;;;;;;4981128;28;20212;-84
2022/06/25 03:14:38;;;;;;;1.00;0.80;;;13.20;99.90;;;;;;4980339;28;20557;-84
2022/06/25 03:17:04;;;;;;;0.73;0.73;;;13.10;99.90;;;;;;4983039;28;20199;-85
2022/06/25 03:19:30;;;;;;;0.73;0.70;;;13.10;99.90;;;;;;4980802;28;20186;-84
2022/06/25 03:21:56;;;;;;;1.00;0.80;;;13.10;99.90;;;;;;4981363;28;20268;-84
2022/06/25 03:24:21;;;;;;;1.87;1.07;;;13.10;99.90;;;;;;4980995;28;20187;-83
2022/06/25 03:26:47;;;;;;;1.17;0.90;;;13.10;99.90;;;;;;4979477;28;20222;-84
2022/06/25 03:29:13;;;;;;;1.67;0.70;;;13.20;99.90;;;;;;4978857;28;20188;-83
2022/06/25 03:31:39;;;;;;;1.43;0.70;;;13.10;99.90;;;;;;4978583;28;20219;-83
2022/06/25 03:34:05;;;;;;;2.57;0.80;;;13.10;99.90;;;;;;4979179;28;20188;-84
2022/06/25 03:36:32;;;;;;;1.03;0.70;;;13.10;99.90;;;;;;4978981;28;20215;-83
2022/06/25 03:38:57;;;;;;;0.93;0.87;;;13.10;99.90;;;;;;4978962;28;20183;-84
2022/06/25 03:41:32;;;;;;;1.53;0.70;;;13.10;99.90;;;;;;4978407;28;20808;-83
2022/06/25 03:43:59;;;;;;;1.13;0.80;;;13.00;99.90;;;;;;4978258;28;20226;-83
2022/06/25 03:46:25;;;;;;;3.03;0.90;;;13.10;99.90;;;;;;4977538;28;20183;-83
2022/06/25 03:48:51;;;;;;;1.30;0.90;;;13.10;99.90;;;;;;4976441;28;20184;-83
2022/06/25 03:51:17;;;;;;;3.07;0.70;;;13.10;99.90;;;;;;4978475;28;20216;-83
2022/06/25 03:53:43;;;;;;;0.90;0.73;;;13.10;99.90;;;;;;4995197;28;20302;-84
2022/06/25 03:56:08;;;;;;;1.67;1.00;;;13.10;99.90;;;;;;4999592;28;20240;-84
2022/06/25 03:58:34;;;;;;;0.90;0.80;;;13.10;99.90;;;;;;4982738;28;20183;-84
2022/06/25 04:01:00;;;;;;;1.10;0.73;;;13.10;99.90;;;;;;4982880;28;20203;-85
2022/06/25 04:03:26;;;;;;;0.80;0.80;;;13.00;99.90;;;;;;4981101;28;20181;-84
2022/06/25 04:05:51;;;;;;;2.30;0.93;;;13.10;99.90;;;;;;4982222;28;20184;-84
2022/06/25 04:08:17;;;;;;;1.50;0.80;;;13.00;99.90;;;;;;4983281;28;20179;-84
2022/06/25 04:10:43;;;;;;;0.70;0.70;;;13.10;99.90;;;;;;4983305;28;20668;-84
2022/06/25 04:13:09;;;;;;;2.10;0.97;;;13.10;99.90;;;;;;4981817;28;20214;-84
2022/06/25 04:15:36;;;;;;;1.73;0.87;;;13.10;99.90;;;;;;4981980;28;20670;-84
2022/06/25 04:18:05;;;;;;;0.80;0.70;;;13.20;99.90;;;;;;4984082;28;20183;-84
2022/06/25 04:20:30;;;;;;;6.90;0.90;;;13.20;99.90;;;;;;4983650;28;20195;-84
2022/06/25 04:22:56;;;;;;;0.87;0.63;;;13.20;99.90;;;;;;4984303;28;20240;-85
2022/06/25 04:25:30;;;;;;;1.03;0.90;;;13.20;99.90;;;;;;4982800;28;20192;-84
2022/06/25 04:30:40;;;;;;;1.10;0.80;;;13.30;99.90;;;;;;4985343;28;20270;-84
2022/06/25 04:33:06;;;;;;;0.77;0.70;;;13.30;99.90;;;;;;4984639;28;20208;-85
2022/06/25 04:35:31;;;;;;;1.00;0.80;;;13.30;99.90;;;;;;4984762;28;20210;-84
2022/06/25 04:37:57;;;;;;;3.00;0.70;;;13.40;99.90;;;;;;4996531;28;20215;-84
2022/06/25 04:40:23;;;;;;;0.80;0.80;;;13.40;99.90;;;;;;4995288;28;20196;-83
2022/06/25 04:42:48;;;;;;;2.87;0.90;;;13.50;99.90;;;;;;4982294;28;20183;-84
2022/06/25 04:45:14;;;;;;;0.83;0.70;;;13.60;99.90;;;;;;4982380;28;20179;-84
2022/06/25 04:47:40;;;;;;;4.67;0.70;;;13.70;99.90;;;;;;4980937;28;20235;-85
2022/06/25 04:50:07;;;;;;;1.47;0.90;;;13.80;99.90;;;;;;4980408;28;20200;-85
2022/06/25 04:52:33;;;;;;;1.43;0.80;;;13.80;99.90;;;;;;4982234;28;20264;-85
2022/06/25 04:54:59;;;;;;;1.40;0.80;;;13.90;99.90;;;;;;4981097;28;20176;-85
2022/06/25 04:57:25;;;;;;;0.70;0.70;;;14.00;99.90;;;;;;4983041;28;20180;-84
2022/06/25 04:59:50;;;;;;;2.17;0.70;;;14.10;99.90;;;;;;4981207;28;20223;-85
2022/06/25 05:02:16;;;;;;;1.07;0.97;;;14.10;99.90;;;;;;4983399;28;20652;-85
2022/06/25 05:04:42;;;;;;;1.17;0.70;;;14.20;99.90;;;;;;4982182;28;20180;-85
2022/06/25 05:07:08;;;;;;;1.50;0.60;;;14.30;99.90;;;;;;4982299;28;20185;-85
2022/06/25 05:09:33;;;;;;;1.40;0.80;;;14.40;99.90;;;;;;4979303;28;20207;-84
2022/06/25 05:11:59;;;;;;;0.70;0.70;;;14.40;99.90;;;;;;4980670;28;20204;-85
2022/06/25 05:14:25;;;;;;;1.60;0.70;;;14.50;99.90;;;;;;4981206;28;20212;-85
2022/06/25 05:16:51;;;;;;;1.63;0.70;;;14.50;99.90;;;;;;4981239;28;20257;-84
2022/06/25 05:19:17;;;;;;;1.77;0.90;;;14.60;99.90;;;;;;4983234;28;20527;-85
2022/06/25 05:21:43;;;;;;;1.27;1.00;;;14.70;99.90;;;;;;4984839;28;20215;-86
2022/06/25 05:24:08;;;;;;;2.00;0.70;;;14.70;99.90;;;;;;4982801;28;20646;-85
2022/06/25 05:26:34;;;;;;;2.43;0.93;;;14.80;99.90;;;;;;4982503;28;20192;-86
2022/06/25 05:29:00;;;;;;;0.83;0.70;;;14.90;99.90;;;;;;4982840;28;20239;-85
2022/06/25 05:31:25;;;;;;;0.70;0.70;;;15.00;99.90;;;;;;4984387;28;20705;-85
2022/06/25 05:33:51;;;;;;;1.20;0.80;;;15.00;99.90;;;;;;4983978;28;20168;-86
2022/06/25 05:36:17;;;;;;;0.80;0.70;;;15.10;99.90;;;;;;4982598;28;20244;-85
2022/06/25 05:38:43;;;;;;;0.83;0.83;;;15.10;99.90;;;;;;4981921;28;20719;-84
2022/06/25 05:41:09;;;;;;;0.73;0.70;;;15.20;99.90;;;;;;4982232;28;20224;-84
2022/06/25 05:43:36;;;;;;;1.50;0.80;;;15.30;99.90;;;;;;4982021;28;20176;-84
2022/06/25 05:46:02;;;;;;;0.90;0.70;;;15.40;99.90;;;;;;4980628;28;20203;-85
2022/06/25 05:48:28;;;;;;;0.90;0.70;;;15.50;99.90;;;;;;4980355;28;20184;-84
2022/06/25 05:50:54;;;;;;;0.90;0.80;;;15.50;99.90;;;;;;4980902;28;20224;-84
2022/06/25 05:53:20;;;;;;;1.70;0.80;;;15.60;99.90;;;;;;4980562;28;20183;-84
2022/06/25 05:55:46;;;;;;;1.90;1.20;;;15.70;99.90;;;;;;4980040;28;20176;-84
2022/06/25 05:58:12;;;;;;;0.90;0.90;;;15.80;99.90;;;;;;4978908;28;20642;-83
2022/06/25 06:00:39;;;;;;;0.70;0.70;;;15.80;99.90;;;;;;4980266;28;20693;-84
2022/06/25 06:03:05;;;;;;;0.87;0.87;;;15.90;99.90;;;;;;4996208;28;20160;-85
2022/06/25 06:05:31;;;;;;;1.13;0.70;;;15.90;99.90;;;;;;5002655;28;20168;-87
2022/06/25 06:07:56;;;;;;;1.30;0.80;;;16.00;99.90;;;;;;4991631;28;20192;-85
2022/06/25 06:10:22;;;;;;;4.50;0.90;;;16.10;99.90;;;;;;4992649;28;20291;-84
2022/06/25 06:12:48;;;;;;;1.50;0.70;;;16.20;99.90;;;;;;4997276;28;20696;-85
2022/06/25 06:15:14;;;;;;;0.77;0.60;;;16.20;99.90;;;;;;4995578;28;20192;-85
2022/06/25 06:17:40;;;;;;;1.13;0.80;;;16.30;99.90;;;;;;4988048;28;20184;-85
2022/06/25 06:20:06;;;;;;;1.17;0.70;;;16.40;99.90;;;;;;4990853;28;20234;-85
2022/06/25 06:22:32;;;;;;;1.10;0.80;;;16.50;99.90;;;;;;4991087;28;20217;-84
2022/06/25 06:24:57;;;;;;;1.80;0.70;;;16.70;99.90;;;;;;4989871;28;20180;-85
2022/06/25 06:27:23;;;;;;;1.17;0.87;;;16.70;99.90;;;;;;4985908;28;20194;-84
2022/06/25 06:29:49;;;;;;;3.27;1.00;;;16.80;99.90;;;;;;4982042;28;20215;-84
2022/06/25 06:32:14;;;;;;;2.90;0.73;;;16.90;99.90;;;;;;4986250;28;20620;-84
2022/06/25 06:34:40;;;;;;;2.30;0.70;;;16.90;99.90;;;;;;4985287;28;20200;-84
2022/06/25 06:37:06;;;;;;;0.43;0.43;;;16.90;99.90;;;;;;4983105;28;20529;-85
2022/06/25 06:39:32;;;;;;;0.80;0.60;;;17.10;99.90;;;;;;4982090;28;20184;-84
2022/06/25 06:41:57;;;;;;;0.60;0.60;;;17.10;99.90;;;;;;4981758;28;20642;-83
2022/06/25 06:44:23;;;;;;;1.07;0.60;;;17.10;99.90;;;;;;4979313;28;20189;-82
2022/06/25 06:46:49;;;;;;;1.07;0.67;;;17.10;99.90;;;;;;4981131;28;20190;-86
2022/06/25 06:49:14;;;;;;;0.67;0.63;;;17.30;99.90;;;;;;4982934;28;20270;-84
2022/06/25 06:51:40;;;;;;;2.00;0.70;;;17.30;99.90;;;;;;4982225;28;20217;-85
2022/06/25 06:54:06;;;;;;;0.77;0.70;;;17.30;99.90;;;;;;4981748;28;20208;-84
2022/06/25 06:56:32;;;;;;;0.90;0.53;;;17.30;99.90;;;;;;4981912;28;20651;-84
2022/06/25 06:58:57;;;;;;;0.60;0.50;;;17.40;99.90;;;;;;4982507;28;20173;-84
2022/06/25 07:01:23;;;;;;;0.80;0.60;;;17.40;99.90;;;;;;4981662;28;20204;-83
2022/06/25 07:03:49;;;;;;;1.43;0.70;;;17.50;99.90;;;;;;4981916;28;20208;-84
2022/06/25 07:06:14;;;;;;;1.83;0.60;;;17.60;99.90;;;;;;4980556;28;20271;-84
2022/06/25 07:08:40;;;;;;;0.70;0.57;;;17.70;99.90;;;;;;4982668;28;20211;-84
2022/06/25 07:11:28;;;;;;;0.80;0.60;;;17.60;99.90;;;;;;4980608;28;20196;-84
2022/06/25 07:13:53;;;;;;;0.90;0.70;;;17.60;99.90;;;;;;4979996;28;20184;-84
2022/06/25 07:16:19;;;;;;;0.50;0.50;;;17.60;99.90;;;;;;4977786;28;20193;-84
2022/06/25 07:18:45;;;;;;;0.77;0.70;;;17.70;99.90;;;;;;4975925;28;20181;-84
2022/06/25 07:21:10;;;;;;;0.67;0.60;;;17.70;99.90;;;;;;4976349;28;20232;-85
2022/06/25 07:23:36;;;;;;;0.60;0.60;;;17.80;99.90;;;;;;4985744;28;20185;-85
2022/06/25 07:26:02;;;;;;;1.43;0.70;;;17.80;99.90;;;;;;4987952;28;20273;-85
2022/06/25 07:28:27;;;;;;;1.30;0.53;;;17.90;99.90;;;;;;4987080;28;20185;-85
2022/06/25 07:30:53;;;;;;;0.50;0.50;;;18.00;99.90;;;;;;4984403;28;20233;-85
2022/06/25 07:33:19;;;;;;;0.73;0.73;;;18.10;99.90;;;;;;4989820;28;20174;-86
2022/06/25 07:35:45;;;;;;;2.00;0.53;;;18.20;99.90;;;;;;4988058;28;20547;-85
2022/06/25 07:38:10;;;;;;;0.70;0.60;;;18.30;99.90;;;;;;4989765;28;20203;-85
2022/06/25 07:40:36;;;;;;;0.47;0.47;;;18.40;99.90;;;;;;4983944;28;20199;-85
2022/06/25 07:43:02;;;;;;;2.23;0.60;;;18.50;99.90;;;;;;4980847;28;20186;-83
2022/06/25 07:45:28;;;;;;;0.83;0.60;;;18.50;99.90;;;;;;4979752;28;20186;-84
2022/06/25 07:47:53;;;;;;;1.17;0.73;;;18.60;99.90;;;;;;4978466;28;20182;-85
2022/06/25 07:53:04;;;;;;;2.87;0.63;;;18.80;99.90;;;;;;4980914;28;20672;-84
2022/06/25 07:55:30;;;;;;;1.10;0.70;;;18.90;99.90;;;;;;4980362;28;20184;-84
2022/06/25 07:57:56;;;;;;;1.83;0.70;;;19.00;99.90;;;;;;4977864;28;20261;-84
2022/06/25 08:00:22;;;;;;;1.13;0.73;;;19.00;99.90;;;;;;4977066;28;20203;-85
2022/06/25 08:02:48;;;;;;;0.50;0.50;;;18.90;99.90;;;;;;4976636;28;20570;-85
2022/06/25 08:05:14;;;;;;;0.63;0.50;;;18.90;99.90;;;;;;4976471;28;20179;-85
2022/06/25 08:07:39;;;;;;;0.97;0.70;;;18.90;99.90;;;;;;4975318;28;20576;-84
2022/06/25 08:10:06;;;;;;;1.53;0.60;;;19.00;99.90;;;;;;4979315;28;20258;-84
2022/06/25 08:12:32;;;;;;;1.10;1.00;;;19.00;99.90;;;;;;4994921;28;20267;-85
2022/06/25 08:14:58;;;;;;;0.60;0.50;;;19.20;99.90;;;;;;4998610;28;20209;-85
2022/06/25 08:17:24;;;;;;;0.90;0.60;;;19.30;99.90;;;;;;4981636;28;20660;-85
2022/06/25 08:19:50;;;;;;;1.07;0.60;;;19.50;99.90;;;;;;4982351;28;20289;-85
2022/06/25 08:22:15;;;;;;;0.50;0.50;;;19.60;99.90;;;;;;4979911;28;20562;-85
2022/06/25 08:24:41;;;;;;;0.90;0.60;;;19.60;99.90;;;;;;4980880;28;20198;-85
2022/06/25 08:27:07;;;;;;;1.07;0.70;;;19.70;99.90;;;;;;4980425;28;20203;-85
2022/06/25 08:29:32;;;;;;;0.70;0.60;;;19.60;99.90;;;;;;4979525;28;20186;-85
2022/06/25 08:31:58;;;;;;;1.67;0.60;;;19.40;99.90;;;;;;4980257;28;20554;-85
2022/06/25 08:34:24;;;;;;;1.70;0.90;;;19.30;99.90;;;;;;4980850;28;20172;-85
2022/06/25 08:36:50;;;;;;;2.27;0.70;;;19.20;99.90;;;;;;4980414;28;20165;-85
2022/06/25 08:39:15;;;;;;;1.10;0.60;;;19.20;99.90;;;;;;4981114;28;20225;-85
2022/06/25 08:41:42;;;;;;;0.60;0.60;;;19.30;99.90;;;;;;4983528;28;20229;-85
2022/06/25 08:44:08;;;;;;;1.23;0.80;;;19.50;99.90;;;;;;4982147;28;20184;-86
2022/06/25 08:46:34;;;;;;;1.53;0.90;;;19.80;99.90;;;;;;4981882;28;20636;-86
2022/06/25 08:49:00;;;;;;;0.93;0.70;;;20.20;99.90;;;;;;4981841;28;20308;-86
2022/06/25 08:51:28;;;;;;;0.73;0.70;;;20.40;99.90;;;;;;4983042;28;20690;-86
2022/06/25 08:53:55;;;;;;;1.07;0.60;;;20.70;99.90;;;;;;4983268;28;20174;-86
2022/06/25 08:56:22;;;;;;;1.63;0.60;;;20.80;99.90;;;;;;4984387;28;20245;-85
2022/06/25 08:58:47;;;;;;;0.70;0.70;;;21.00;99.90;;;;;;4983850;28;20287;-86
2022/06/25 09:01:13;;;;;;;0.80;0.60;;;21.20;99.90;;;;;;4985658;28;20224;-85
2022/06/25 09:03:39;;;;;;;0.90;0.60;;;21.30;99.90;;;;;;4984631;28;20180;-86
2022/06/25 09:06:13;;;;;;;1.07;0.60;;;21.30;99.90;;;;;;4982941;28;20172;-85
2022/06/25 09:08:40;;;;;;;1.13;0.80;;;21.30;99.90;;;;;;4983932;28;20270;-85
2022/06/25 09:11:05;;;;;;;0.63;0.63;;;21.40;99.90;;;;;;4984436;28;20203;-85
2022/06/25 09:13:31;;;;;;;2.20;0.50;;;21.10;99.90;;;;;;4983114;28;20172;-83
2022/06/25 09:15:57;;;;;;;0.87;0.67;;;20.80;99.90;;;;;;4979466;28;20191;-85
2022/06/25 09:18:22;;;;;;;1.67;0.80;;;20.60;99.90;;;;;;4978909;28;20181;-84
2022/06/25 09:21:02;;;;;;;1.50;0.57;;;20.70;99.90;;;;;;4978511;28;20700;-83
2022/06/25 09:23:30;;;;;;;0.60;0.60;;;21.00;99.90;;;;;;4978309;28;20818;-84
2022/06/25 09:26:07;;;;;;;1.50;0.70;;;21.30;99.90;;;;;;4978051;28;20202;-84
2022/06/25 09:28:44;;;;;;;2.50;0.77;;;21.60;99.90;;;;;;4978317;28;20650;-84
2022/06/25 09:31:10;;;;;;;0.87;0.60;;;21.90;99.90;;;;;;4979512;28;20200;-82
2022/06/25 09:33:38;;;;;;;1.63;0.73;;;22.30;99.90;;;;;;4982246;28;20188;-83
2022/06/25 09:36:07;;;;;;;0.60;0.60;;;22.60;99.90;;;;;;4980516;28;20180;-83
2022/06/25 09:38:33;;;;;;;0.90;0.60;;;22.70;99.90;;;;;;4982575;28;20169;-85
2022/06/25 09:41:00;;;;;;;1.63;0.60;;;23.00;99.90;;;;;;4982873;28;20202;-84
2022/06/25 09:43:28;;;;;;;0.60;0.60;;;23.20;99.90;;;;;;4982337;28;20178;-84
2022/06/25 09:45:56;;;;;;;1.43;0.70;;;23.10;99.90;;;;;;4983214;28;20181;-84
2022/06/25 09:48:27;;;;;;;2.87;0.60;;;23.20;99.90;;;;;;4982607;28;20179;-85
2022/06/25 09:51:09;;;;;;;0.87;0.60;;;23.40;99.90;;;;;;4983319;28;20200;-85
2022/06/25 09:53:44;;;;;;;1.03;0.70;;;23.60;99.90;;;;;;4999279;28;20264;-83
2022/06/25 09:56:12;;;;;;;0.50;0.50;;;23.80;99.90;;;;;;4984586;28;20253;-82
2022/06/25 09:58:41;;;;;;;1.03;0.70;;;23.60;99.90;;;;;;4989533;28;20176;-83
2022/06/25 10:01:07;;;;;;;1.70;0.80;;;23.10;99.90;;;;;;4991251;28;20774;-83
2022/06/25 10:03:36;;;;;;;2.70;0.60;;;22.70;99.90;;;;;;4996035;28;20202;-82
2022/06/25 10:06:02;;;;;;;0.63;0.63;;;22.30;99.90;;;;;;4987326;28;20316;-84
2022/06/25 10:08:30;;;;;;;1.43;0.70;;;22.00;99.90;;;;;;4993764;28;20237;-84
2022/06/25 10:10:56;;;;;;;1.10;0.60;;;22.30;99.90;;;;;;4985657;28;20550;-84
2022/06/25 10:13:23;;;;;;;0.70;0.70;;;22.30;99.90;;;;;;4990869;28;20180;-85
2022/06/25 10:15:49;;;;;;;1.80;0.67;;;22.70;99.90;;;;;;4986386;28;20194;-83
2022/06/25 10:18:16;;;;;;;0.70;0.60;;;;;;;;;;4985152;28;20251;-83
2022/06/25 10:20:43;;;;;;;3.60;0.60;;;23.50;99.90;;;;;;5001971;28;20196;-82
2022/06/25 10:23:11;;;;;;;0.60;0.60;;;23.70;99.90;;;;;;4995609;28;20193;-84
2022/06/25 10:25:38;;;;;;;1.30;0.50;;;23.90;99.90;;;;;;5004384;28;20182;-83
2022/06/25 10:28:13;;;;;;;0.57;0.57;;;24.20;99.90;;;;;;4994718;28;20604;-83
2022/06/25 10:30:51;;;;;;;1.80;0.60;;;24.30;99.90;;;;;;4989702;28;20207;-84
2022/06/25 10:33:21;;;;;;;0.93;0.50;;;24.60;99.90;;;;;;4993442;28;20217;-82
2022/06/25 10:35:47;;;;;;;0.53;0.53;;;24.80;99.90;;;;;;4987264;28;20183;-84
2022/06/25 10:38:21;;;;;;;0.83;0.70;;;24.90;99.90;;;;;;4987671;28;20182;-83
2022/06/25 10:43:57;;;;;;;1.33;0.50;;;24.80;99.90;;;;;;4990077;28;20187;-84
2022/06/25 10:46:30;;;;;;;0.50;0.50;;;25.00;99.90;;;;;;4990629;28;20187;-85
2022/06/25 10:49:08;;;;;;;1.47;0.70;;;25.40;99.90;;;;;;4985283;28;20192;-84
2022/06/25 10:51:46;;;;;;;1.20;0.60;;;25.70;99.90;;;;;;4985260;28;20204;-83
2022/06/25 10:54:27;;;;;;;0.40;0.40;;;26.10;99.90;;;;;;4983439;28;20219;-83
2022/06/25 10:56:58;;;;;;;0.60;0.53;;;26.30;99.90;;;;;;4982685;28;20203;-84
2022/06/25 10:59:37;;;;;;;0.50;0.50;;;26.70;99.90;;;;;;4982846;28;20175;-84
2022/06/25 11:02:05;;;;;;;0.50;0.50;;;26.70;99.90;;;;;;4984033;28;20176;-83
2022/06/25 11:04:32;;;;;;;0.50;0.47;;;26.80;99.90;;;;;;4983151;28;20179;-84
2022/06/25 11:07:13;;;;;;;0.93;0.80;;;27.00;99.90;;;;;;4980677;28;20238;-86
2022/06/25 11:09:40;;;;;;;1.10;0.60;;;27.10;99.90;;;;;;4981893;28;20196;-86
2022/06/25 11:12:06;;;;;;;4.10;0.73;;;27.10;99.90;;;;;;4982463;28;20204;-85
2022/06/25 11:14:32;;;;;;;3.60;0.67;;;27.20;99.90;;;;;;4983195;28;20538;-86
2022/06/25 11:17:07;;;;;;;0.70;0.60;;;27.10;99.90;;;;;;4986838;28;20187;-86
2022/06/25 11:19:32;;;;;;;0.60;0.50;;;27.20;99.90;;;;;;4993308;28;20173;-86
2022/06/25 11:22:01;;;;;;;0.80;0.57;;;27.20;99.90;;;;;;4982419;28;20525;-86
2022/06/25 11:24:28;;;;;;;0.63;0.63;;;27.50;99.90;;;;;;4980544;28;20181;-85
2022/06/25 11:29:46;;;;;;;1.73;0.80;;;27.70;99.90;;;;;;4980215;28;20214;-87
2022/06/25 11:32:13;;;;;;;0.50;0.50;;;27.90;99.90;;;;;;4977515;28;20224;-85
2022/06/25 11:34:39;;;;;;;0.60;0.60;;;28.00;99.90;;;;;;4976076;28;20326;-85
2022/06/25 11:37:12;;;;;;;0.60;0.60;;;28.00;99.90;;;;;;4976272;28;20246;-84
2022/06/25 11:39:41;;;;;;;0.73;0.60;;;28.10;99.90;;;;;;4978262;28;20205;-82
2022/06/25 11:42:10;;;;;;;1.43;0.60;;;28.20;99.90;;;;;;4979560;28;20274;-82
2022/06/25 11:44:48;;;;;;;0.63;0.53;;;28.20;99.90;;;;;;4979939;28;20564;-85
2022/06/25 11:47:17;;;;;;;0.60;0.60;;;28.10;99.90;;;;;;4983101;28;20180;-86
2022/06/25 11:49:43;;;;;;;0.70;0.70;;;28.00;99.90;;;;;;4983099;28;20208;-83
2022/06/25 11:52:10;;;;;;;0.70;0.70;;;27.80;99.90;;;;;;4985366;28;20212;-85
2022/06/25 11:54:37;;;;;;;0.60;0.60;;;27.60;99.90;;;;;;4985178;28;20193;-83
2022/06/25 11:57:05;;;;;;;0.93;0.63;;;26.80;99.90;;;;;;4984381;28;20196;-83
2022/06/25 11:59:33;;;;;;;1.57;0.70;;;26.50;99.90;;;;;;4983387;28;20173;-82
2022/06/25 12:01:59;;;;;;;0.60;0.60;;;26.40;99.90;;;;;;4981723;28;20224;-83
2022/06/25 12:04:26;;;;;;;0.80;0.50;;;26.40;99.90;;;;;;4983926;28;20184;-82
2022/06/25 12:06:53;;;;;;;0.70;0.60;;;26.50;99.90;;;;;;4983110;28;20186;-81
2022/06/25 12:09:20;;;;;;;0.77;0.77;;;26.80;99.90;;;;;;4981424;28;20531;-82
2022/06/25 12:11:53;;;;;;;0.50;0.50;;;27.20;99.90;;;;;;4982918;28;20221;-81
2022/06/25 12:14:24;;;;;;;1.03;0.87;;;27.20;99.90;;;;;;4983391;28;20547;-82
2022/06/25 12:16:51;;;;;;;0.60;0.50;;;27.30;99.90;;;;;;4983262;28;20263;-84
2022/06/25 12:19:18;;;;;;;0.70;0.60;;;27.50;99.90;;;;;;4985253;28;20245;-83
2022/06/25 12:21:44;;;;;;;0.77;0.50;;;27.70;99.90;;;;;;4990747;28;20191;-85
2022/06/25 12:24:15;;;;;;;0.40;0.40;;;27.70;99.90;;;;;;4988191;28;20225;-82
2022/06/25 12:26:51;;;;;;;0.83;0.67;;;27.60;99.90;;;;;;4985738;28;20194;-82
2022/06/25 12:29:24;;;;;;;0.67;0.60;;;27.80;99.90;;;;;;4992364;28;20174;-82
2022/06/25 12:31:59;;;;;;;0.60;0.60;;;27.70;99.90;;;;;;4992511;28;20281;-81
2022/06/25 12:34:27;;;;;;;0.57;0.53;;;27.60;99.90;;;;;;4983890;28;20198;-81
2022/06/25 12:36:54;;;;;;;1.70;0.53;;;27.70;99.90;;;;;;4982032;28;20177;-82
2022/06/25 12:39:34;;;;;;;2.47;0.60;;;27.60;99.80;;;;;;4984686;28;20592;-84
2022/06/25 12:42:13;;;;;;;0.50;0.50;;;27.60;99.90;;;;;;4984678;28;20200;-82
2022/06/25 12:44:44;;;;;;;0.93;0.70;;;27.50;99.90;;;;;;4981939;28;20185;-82
2022/06/25 12:47:13;;;;;;;0.73;0.50;;;27.50;99.90;;;;;;4981642;28;20205;-82
2022/06/25 12:49:47;;;;;;;1.40;0.60;;;28.10;99.90;;;;;;4982112;28;20208;-83
2022/06/25 12:52:19;;;;;;;0.80;0.67;;;28.10;99.90;;;;;;4981921;28;20203;-82
2022/06/25 12:54:54;;;;;;;0.70;0.63;;;28.20;99.90;;;;;;4980134;28;20171;-83
2022/06/25 12:57:28;;;;;;;1.43;0.60;;;28.40;99.90;;;;;;4978509;28;20656;-81
2022/06/25 12:59:56;;;;;;;0.60;0.60;;;28.80;99.20;;;;;;4978485;28;20209;-81
2022/06/25 13:02:22;;;;;;;5.33;0.80;;;28.80;99.90;;;;;;4981262;28;20257;-82